sensor_id;sensor_type;location;lat;lon;timestamp;pressure;altitude;pressure_sealevel;temperature;humidity
64967;BME280;51710;38.732;-121.358;2023-04-30T00:02:20;100689.47;;;32.31;27.96
64967;BME280;51710;38.732;-121.358;2023-04-30T00:04:46;100695.16;;;32.21;27.63
64967;BME280;51710;38.732;-121.358;2023-04-30T00:07:12;100694.19;;;32.12;27.67
64967;BME280;51710;38.732;-121.358;2023-04-30T00:09:39;100694.72;;;32.14;27.84
64967;BME280;51710;38.732;-121.358;2023-04-30T00:12:05;100693.31;;;32.17;27.71
64967;BME280;51710;38.732;-121.358;2023-04-30T00:14:31;100689.22;;;32.14;27.88
64967;BME280;51710;38.732;-121.358;2023-04-30T00:16:57;100699.63;;;32.17;28.09
64967;BME280;51710;38.732;-121.358;2023-04-30T00:19:24;100688.06;;;32.15;28.44
64967;BME280;51710;38.732;-121.358;2023-04-30T00:21:50;100685.72;;;32.09;28.17
64967;BME280;51710;38.732;-121.358;2023-04-30T00:24:16;100693.84;;;32.00;29.13
64967;BME280;51710;38.732;-121.358;2023-04-30T00:26:42;100689.81;;;31.92;29.51
64967;BME280;51710;38.732;-121.358;2023-04-30T00:29:09;100690.25;;;31.81;29.46
64967;BME280;51710;38.732;-121.358;2023-04-30T00:31:36;100684.91;;;31.71;29.38
64967;BME280;51710;38.732;-121.358;2023-04-30T00:34:02;100686.59;;;31.67;29.58
64967;BME280;51710;38.732;-121.358;2023-04-30T00:36:28;100682.00;;;31.62;29.76
64967;BME280;51710;38.732;-121.358;2023-04-30T00:38:55;100684.59;;;31.54;29.78
64967;BME280;51710;38.732;-121.358;2023-04-30T00:41:22;100676.75;;;31.42;30.51
64967;BME280;51710;38.732;-121.358;2023-04-30T00:43:49;100687.88;;;31.32;30.03
64967;BME280;51710;38.732;-121.358;2023-04-30T00:46:15;100683.25;;;31.28;30.35
64967;BME280;51710;38.732;-121.358;2023-04-30T00:48:42;100680.78;;;31.26;30.44
64967;BME280;51710;38.732;-121.358;2023-04-30T00:51:08;100684.94;;;31.24;30.14
64967;BME280;51710;38.732;-121.358;2023-04-30T00:53:36;100677.78;;;31.23;30.12
64967;BME280;51710;38.732;-121.358;2023-04-30T00:56:04;100686.56;;;31.25;30.92
64967;BME280;51710;38.732;-121.358;2023-04-30T00:58:30;100683.81;;;31.25;30.22
64967;BME280;51710;38.732;-121.358;2023-04-30T01:00:57;100672.59;;;31.21;29.92
64967;BME280;51710;38.732;-121.358;2023-04-30T01:03:23;100676.75;;;31.19;29.37
64967;BME280;51710;38.732;-121.358;2023-04-30T01:05:50;100676.53;;;31.15;29.94
64967;BME280;51710;38.732;-121.358;2023-04-30T01:08:18;100673.00;;;31.10;29.49
64967;BME280;51710;38.732;-121.358;2023-04-30T01:14:11;100679.81;;;30.93;30.01
64967;BME280;51710;38.732;-121.358;2023-04-30T01:16:47;100681.22;;;30.91;30.19
64967;BME280;51710;38.732;-121.358;2023-04-30T01:19:37;100671.91;;;30.87;30.67
64967;BME280;51710;38.732;-121.358;2023-04-30T01:22:09;100676.38;;;30.78;31.20
64967;BME280;51710;38.732;-121.358;2023-04-30T01:30:08;100673.66;;;30.49;31.94
64967;BME280;51710;38.732;-121.358;2023-04-30T01:32:35;100676.72;;;30.43;32.46
64967;BME280;51710;38.732;-121.358;2023-04-30T01:35:02;100675.34;;;30.45;32.62
64967;BME280;51710;38.732;-121.358;2023-04-30T01:37:46;100668.06;;;30.59;32.27
64967;BME280;51710;38.732;-121.358;2023-04-30T01:40:32;100675.53;;;30.77;31.64
64967;BME280;51710;38.732;-121.358;2023-04-30T01:43:16;100671.34;;;30.61;31.12
64967;BME280;51710;38.732;-121.358;2023-04-30T01:45:56;100667.69;;;30.42;31.34
64967;BME280;51710;38.732;-121.358;2023-04-30T01:51:37;100673.91;;;30.19;31.63
64967;BME280;51710;38.732;-121.358;2023-04-30T01:54:59;100665.75;;;30.04;31.86
64967;BME280;51710;38.732;-121.358;2023-04-30T01:57:38;100668.03;;;29.92;32.29
64967;BME280;51710;38.732;-121.358;2023-04-30T02:00:07;100669.50;;;29.84;32.67
64967;BME280;51710;38.732;-121.358;2023-04-30T02:02:36;100668.19;;;29.72;32.83
64967;BME280;51710;38.732;-121.358;2023-04-30T02:05:02;100669.88;;;29.63;32.32
64967;BME280;51710;38.732;-121.358;2023-04-30T02:07:42;100664.44;;;29.53;32.06
64967;BME280;51710;38.732;-121.358;2023-04-30T02:10:10;100663.69;;;29.42;32.37
64967;BME280;51710;38.732;-121.358;2023-04-30T02:12:40;100666.19;;;29.34;32.73
64967;BME280;51710;38.732;-121.358;2023-04-30T02:15:06;100664.84;;;29.26;32.40
64967;BME280;51710;38.732;-121.358;2023-04-30T02:17:33;100662.41;;;29.20;32.41
64967;BME280;51710;38.732;-121.358;2023-04-30T02:20:00;100659.16;;;29.13;32.32
64967;BME280;51710;38.732;-121.358;2023-04-30T02:22:26;100670.44;;;29.01;32.39
64967;BME280;51710;38.732;-121.358;2023-04-30T02:24:52;100669.09;;;28.89;32.44
64967;BME280;51710;38.732;-121.358;2023-04-30T02:27:21;100675.69;;;28.83;32.80
64967;BME280;51710;38.732;-121.358;2023-04-30T02:29:48;100667.47;;;28.72;33.51
64967;BME280;51710;38.732;-121.358;2023-04-30T02:32:14;100659.28;;;28.62;33.88
64967;BME280;51710;38.732;-121.358;2023-04-30T02:34:41;100662.56;;;28.54;33.90
64967;BME280;51710;38.732;-121.358;2023-04-30T02:37:08;100661.22;;;28.42;34.58
64967;BME280;51710;38.732;-121.358;2023-04-30T02:39:34;100657.41;;;28.28;34.39
64967;BME280;51710;38.732;-121.358;2023-04-30T02:42:00;100659.03;;;28.19;34.71
64967;BME280;51710;38.732;-121.358;2023-04-30T02:44:28;100665.88;;;28.11;35.00
64967;BME280;51710;38.732;-121.358;2023-04-30T02:46:54;100659.84;;;28.04;34.89
64967;BME280;51710;38.732;-121.358;2023-04-30T02:49:20;100669.16;;;27.98;35.15
64967;BME280;51710;38.732;-121.358;2023-04-30T02:51:46;100668.34;;;27.93;35.27
64967;BME280;51710;38.732;-121.358;2023-04-30T02:54:13;100673.50;;;27.84;35.42
64967;BME280;51710;38.732;-121.358;2023-04-30T02:56:39;100672.94;;;27.77;35.40
64967;BME280;51710;38.732;-121.358;2023-04-30T02:59:06;100677.56;;;27.66;36.34
64967;BME280;51710;38.732;-121.358;2023-04-30T03:01:33;100681.38;;;27.55;36.07
64967;BME280;51710;38.732;-121.358;2023-04-30T03:03:59;100681.34;;;27.45;36.81
64967;BME280;51710;38.732;-121.358;2023-04-30T03:06:25;100674.75;;;27.36;36.65
64967;BME280;51710;38.732;-121.358;2023-04-30T03:08:52;100680.72;;;27.28;37.25
64967;BME280;51710;38.732;-121.358;2023-04-30T03:11:18;100679.03;;;27.17;37.42
64967;BME280;51710;38.732;-121.358;2023-04-30T03:13:44;100680.88;;;27.07;37.45
64967;BME280;51710;38.732;-121.358;2023-04-30T03:16:13;100683.56;;;26.97;37.79
64967;BME280;51710;38.732;-121.358;2023-04-30T03:18:40;100689.00;;;26.87;37.84
64967;BME280;51710;38.732;-121.358;2023-04-30T03:21:06;100680.16;;;26.75;37.95
64967;BME280;51710;38.732;-121.358;2023-04-30T03:23:32;100687.19;;;26.65;38.10
64967;BME280;51710;38.732;-121.358;2023-04-30T03:25:58;100690.41;;;26.57;38.04
64967;BME280;51710;38.732;-121.358;2023-04-30T03:28:25;100686.50;;;26.48;38.00
64967;BME280;51710;38.732;-121.358;2023-04-30T03:30:51;100686.75;;;26.42;38.29
64967;BME280;51710;38.732;-121.358;2023-04-30T03:33:18;100690.75;;;26.34;38.62
64967;BME280;51710;38.732;-121.358;2023-04-30T03:35:44;100696.47;;;26.28;38.54
64967;BME280;51710;38.732;-121.358;2023-04-30T03:38:11;100693.38;;;26.19;38.81
64967;BME280;51710;38.732;-121.358;2023-04-30T03:40:37;100700.41;;;26.10;39.30
64967;BME280;51710;38.732;-121.358;2023-04-30T03:43:04;100697.28;;;26.02;39.48
64967;BME280;51710;38.732;-121.358;2023-04-30T03:45:30;100699.09;;;25.91;39.68
64967;BME280;51710;38.732;-121.358;2023-04-30T03:47:57;100703.13;;;25.84;40.23
64967;BME280;51710;38.732;-121.358;2023-04-30T03:50:23;100708.19;;;25.75;40.18
64967;BME280;51710;38.732;-121.358;2023-04-30T03:52:49;100711.66;;;25.66;40.56
64967;BME280;51710;38.732;-121.358;2023-04-30T03:55:16;100712.94;;;25.58;40.66
64967;BME280;51710;38.732;-121.358;2023-04-30T03:57:43;100717.44;;;25.47;40.91
64967;BME280;51710;38.732;-121.358;2023-04-30T04:00:10;100714.25;;;25.34;41.24
64967;BME280;51710;38.732;-121.358;2023-04-30T04:02:38;100711.91;;;25.21;41.99
64967;BME280;51710;38.732;-121.358;2023-04-30T04:05:05;100721.03;;;25.10;41.85
64967;BME280;51710;38.732;-121.358;2023-04-30T04:07:31;100729.66;;;25.02;42.12
64967;BME280;51710;38.732;-121.358;2023-04-30T04:09:57;100731.16;;;24.93;42.11
64967;BME280;51710;38.732;-121.358;2023-04-30T04:12:24;100738.94;;;24.84;42.69
64967;BME280;51710;38.732;-121.358;2023-04-30T04:14:50;100736.53;;;24.71;42.56
64967;BME280;51710;38.732;-121.358;2023-04-30T04:17:17;100736.63;;;24.60;43.48
64967;BME280;51710;38.732;-121.358;2023-04-30T04:19:43;100737.25;;;24.50;43.75
64967;BME280;51710;38.732;-121.358;2023-04-30T04:22:10;100734.63;;;24.38;43.93
64967;BME280;51710;38.732;-121.358;2023-04-30T04:24:36;100734.13;;;24.25;44.09
64967;BME280;51710;38.732;-121.358;2023-04-30T04:27:03;100739.03;;;24.11;44.41
64967;BME280;51710;38.732;-121.358;2023-04-30T04:29:30;100740.53;;;24.02;44.39
64967;BME280;51710;38.732;-121.358;2023-04-30T04:31:56;100744.44;;;23.95;44.73
64967;BME280;51710;38.732;-121.358;2023-04-30T04:34:25;100739.88;;;23.84;44.89
64967;BME280;51710;38.732;-121.358;2023-04-30T04:36:51;100751.41;;;23.74;44.86
64967;BME280;51710;38.732;-121.358;2023-04-30T04:39:17;100751.41;;;23.63;44.88
64967;BME280;51710;38.732;-121.358;2023-04-30T04:41:44;100750.97;;;23.54;44.77
64967;BME280;51710;38.732;-121.358;2023-04-30T04:44:10;100760.13;;;23.48;45.07
64967;BME280;51710;38.732;-121.358;2023-04-30T04:46:36;100752.91;;;23.42;44.94
64967;BME280;51710;38.732;-121.358;2023-04-30T04:49:03;100755.28;;;23.38;45.58
64967;BME280;51710;38.732;-121.358;2023-04-30T04:51:29;100763.56;;;23.32;45.42
64967;BME280;51710;38.732;-121.358;2023-04-30T04:53:57;100747.38;;;23.25;45.84
64967;BME280;51710;38.732;-121.358;2023-04-30T04:56:23;100758.84;;;23.16;46.13
64967;BME280;51710;38.732;-121.358;2023-04-30T04:58:50;100764.63;;;23.08;46.36
64967;BME280;51710;38.732;-121.358;2023-04-30T05:01:16;100763.22;;;22.94;46.51
64967;BME280;51710;38.732;-121.358;2023-04-30T05:03:42;100761.81;;;22.80;46.59
64967;BME280;51710;38.732;-121.358;2023-04-30T05:06:08;100761.56;;;22.70;46.71
64967;BME280;51710;38.732;-121.358;2023-04-30T05:11:01;100756.19;;;22.52;46.93
64967;BME280;51710;38.732;-121.358;2023-04-30T05:13:27;100745.09;;;22.42;47.09
64967;BME280;51710;38.732;-121.358;2023-04-30T05:15:53;100751.94;;;22.32;47.17
64967;BME280;51710;38.732;-121.358;2023-04-30T05:18:20;100752.28;;;22.24;47.34
64967;BME280;51710;38.732;-121.358;2023-04-30T05:20:46;100750.94;;;22.15;47.97
64967;BME280;51710;38.732;-121.358;2023-04-30T05:23:13;100752.09;;;22.08;47.78
64967;BME280;51710;38.732;-121.358;2023-04-30T05:25:39;100758.47;;;22.02;48.09
64967;BME280;51710;38.732;-121.358;2023-04-30T05:28:05;100756.06;;;21.94;48.21
64967;BME280;51710;38.732;-121.358;2023-04-30T05:30:32;100757.06;;;21.81;48.04
64967;BME280;51710;38.732;-121.358;2023-04-30T05:32:58;100760.16;;;21.67;48.16
64967;BME280;51710;38.732;-121.358;2023-04-30T05:35:24;100759.66;;;21.58;47.87
64967;BME280;51710;38.732;-121.358;2023-04-30T05:37:50;100767.03;;;21.51;48.07
64967;BME280;51710;38.732;-121.358;2023-04-30T05:40:17;100760.41;;;21.47;48.17
64967;BME280;51710;38.732;-121.358;2023-04-30T05:42:43;100767.56;;;21.42;48.20
64967;BME280;51710;38.732;-121.358;2023-04-30T05:45:10;100755.34;;;21.33;48.42
64967;BME280;51710;38.732;-121.358;2023-04-30T05:47:39;100752.59;;;21.21;48.34
64967;BME280;51710;38.732;-121.358;2023-04-30T05:50:07;100759.13;;;21.13;48.24
64967;BME280;51710;38.732;-121.358;2023-04-30T05:52:33;100748.81;;;21.04;48.11
64967;BME280;51710;38.732;-121.358;2023-04-30T05:54:59;100756.97;;;20.97;47.97
64967;BME280;51710;38.732;-121.358;2023-04-30T05:57:25;100761.41;;;20.92;48.05
64967;BME280;51710;38.732;-121.358;2023-04-30T05:59:52;100755.25;;;20.85;48.44
64967;BME280;51710;38.732;-121.358;2023-04-30T06:02:19;100755.66;;;20.82;48.44
64967;BME280;51710;38.732;-121.358;2023-04-30T06:04:46;100753.25;;;20.74;48.87
64967;BME280;51710;38.732;-121.358;2023-04-30T06:07:12;100753.31;;;20.67;48.85
64967;BME280;51710;38.732;-121.358;2023-04-30T06:09:39;100755.47;;;20.59;48.97
64967;BME280;51710;38.732;-121.358;2023-04-30T06:12:05;100759.66;;;20.55;49.29
64967;BME280;51710;38.732;-121.358;2023-04-30T06:14:31;100753.03;;;20.51;49.55
64967;BME280;51710;38.732;-121.358;2023-04-30T06:16:58;100758.06;;;20.47;49.61
64967;BME280;51710;38.732;-121.358;2023-04-30T06:19:24;100768.94;;;20.41;49.37
64967;BME280;51710;38.732;-121.358;2023-04-30T06:21:50;100752.38;;;20.31;49.38
64967;BME280;51710;38.732;-121.358;2023-04-30T06:24:16;100759.25;;;20.27;49.68
64967;BME280;51710;38.732;-121.358;2023-04-30T06:26:43;100752.03;;;20.21;49.56
64967;BME280;51710;38.732;-121.358;2023-04-30T06:29:09;100750.81;;;20.17;49.70
64967;BME280;51710;38.732;-121.358;2023-04-30T06:31:35;100749.56;;;20.12;50.06
64967;BME280;51710;38.732;-121.358;2023-04-30T06:34:01;100748.31;;;20.08;50.05
64967;BME280;51710;38.732;-121.358;2023-04-30T06:36:27;100746.72;;;20.01;50.17
64967;BME280;51710;38.732;-121.358;2023-04-30T06:38:54;100751.34;;;19.94;50.47
64967;BME280;51710;38.732;-121.358;2023-04-30T06:41:20;100751.41;;;19.87;50.63
64967;BME280;51710;38.732;-121.358;2023-04-30T06:43:46;100749.53;;;19.81;50.79
64967;BME280;51710;38.732;-121.358;2023-04-30T06:46:13;100757.47;;;19.76;50.87
64967;BME280;51710;38.732;-121.358;2023-04-30T06:48:39;100746.03;;;19.74;51.03
64967;BME280;51710;38.732;-121.358;2023-04-30T06:51:06;100748.56;;;19.69;51.07
64967;BME280;51710;38.732;-121.358;2023-04-30T06:53:32;100746.94;;;19.62;51.38
64967;BME280;51710;38.732;-121.358;2023-04-30T06:55:58;100742.81;;;19.59;51.32
64967;BME280;51710;38.732;-121.358;2023-04-30T06:58:25;100745.34;;;19.54;51.45
64967;BME280;51710;38.732;-121.358;2023-04-30T07:00:51;100752.81;;;19.52;51.43
64967;BME280;51710;38.732;-121.358;2023-04-30T07:03:18;100744.72;;;19.52;51.60
64967;BME280;51710;38.732;-121.358;2023-04-30T07:05:44;100748.44;;;19.51;51.63
64967;BME280;51710;38.732;-121.358;2023-04-30T07:08:10;100749.94;;;19.47;51.92
64967;BME280;51710;38.732;-121.358;2023-04-30T07:10:37;100749.13;;;19.40;51.88
64967;BME280;51710;38.732;-121.358;2023-04-30T07:13:04;100751.66;;;19.35;51.86
64967;BME280;51710;38.732;-121.358;2023-04-30T07:15:30;100745.00;;;19.31;51.93
64967;BME280;51710;38.732;-121.358;2023-04-30T07:17:56;100755.97;;;19.23;52.32
64967;BME280;51710;38.732;-121.358;2023-04-30T07:20:22;100748.75;;;19.17;52.38
64967;BME280;51710;38.732;-121.358;2023-04-30T07:22:48;100744.19;;;19.11;52.42
64967;BME280;51710;38.732;-121.358;2023-04-30T07:25:15;100752.72;;;19.08;52.59
64967;BME280;51710;38.732;-121.358;2023-04-30T07:27:41;100751.06;;;19.07;52.79
64967;BME280;51710;38.732;-121.358;2023-04-30T07:30:08;100753.38;;;19.03;53.01
64967;BME280;51710;38.732;-121.358;2023-04-30T07:32:37;100746.50;;;19.01;52.79
64967;BME280;51710;38.732;-121.358;2023-04-30T07:35:05;100759.19;;;18.94;52.69
64967;BME280;51710;38.732;-121.358;2023-04-30T07:37:32;100758.34;;;18.87;53.06
64967;BME280;51710;38.732;-121.358;2023-04-30T07:39:58;100752.16;;;18.80;52.93
64967;BME280;51710;38.732;-121.358;2023-04-30T07:42:24;100749.25;;;18.75;52.88
64967;BME280;51710;38.732;-121.358;2023-04-30T07:44:51;100751.75;;;18.70;53.04
64967;BME280;51710;38.732;-121.358;2023-04-30T07:47:17;100752.81;;;18.69;53.05
64967;BME280;51710;38.732;-121.358;2023-04-30T07:49:46;100745.75;;;18.61;53.09
64967;BME280;51710;38.732;-121.358;2023-04-30T07:52:13;100754.03;;;18.53;53.07
64967;BME280;51710;38.732;-121.358;2023-04-30T07:54:39;100746.16;;;18.45;53.32
64967;BME280;51710;38.732;-121.358;2023-04-30T07:57:05;100745.06;;;18.40;53.14
64967;BME280;51710;38.732;-121.358;2023-04-30T07:59:32;100749.63;;;18.33;53.37
64967;BME280;51710;38.732;-121.358;2023-04-30T08:01:58;100742.19;;;18.28;53.42
64967;BME280;51710;38.732;-121.358;2023-04-30T08:04:24;100736.38;;;18.25;53.24
64967;BME280;51710;38.732;-121.358;2023-04-30T08:06:50;100735.53;;;18.18;53.67
64967;BME280;51710;38.732;-121.358;2023-04-30T08:09:17;100737.59;;;18.16;53.67
64967;BME280;51710;38.732;-121.358;2023-04-30T08:11:43;100735.75;;;18.10;53.44
64967;BME280;51710;38.732;-121.358;2023-04-30T08:14:09;100735.94;;;18.08;53.81
64967;BME280;51710;38.732;-121.358;2023-04-30T08:16:35;100735.94;;;18.02;53.75
64967;BME280;51710;38.732;-121.358;2023-04-30T08:19:02;100734.06;;;17.95;54.05
64967;BME280;51710;38.732;-121.358;2023-04-30T08:21:28;100737.97;;;17.93;53.73
64967;BME280;51710;38.732;-121.358;2023-04-30T08:23:55;100730.91;;;17.85;53.76
64967;BME280;51710;38.732;-121.358;2023-04-30T08:26:22;100732.38;;;17.81;53.59
64967;BME280;51710;38.732;-121.358;2023-04-30T08:28:48;100735.22;;;17.73;54.12
64967;BME280;51710;38.732;-121.358;2023-04-30T08:31:14;100733.38;;;17.67;54.09
64967;BME280;51710;38.732;-121.358;2023-04-30T08:33:40;100730.47;;;17.62;54.23
64967;BME280;51710;38.732;-121.358;2023-04-30T08:36:07;100729.81;;;17.60;54.11
64967;BME280;51710;38.732;-121.358;2023-04-30T08:38:33;100728.75;;;17.55;54.21
64967;BME280;51710;38.732;-121.358;2023-04-30T08:41:10;100732.06;;;17.50;54.22
64967;BME280;51710;38.732;-121.358;2023-04-30T08:43:38;100719.00;;;17.47;54.33
64967;BME280;51710;38.732;-121.358;2023-04-30T08:46:05;100721.03;;;17.45;54.57
64967;BME280;51710;38.732;-121.358;2023-04-30T08:48:32;100720.59;;;17.42;54.34
64967;BME280;51710;38.732;-121.358;2023-04-30T08:51:00;100713.13;;;17.37;54.52
64967;BME280;51710;38.732;-121.358;2023-04-30T08:53:27;100706.69;;;17.32;54.88
64967;BME280;51710;38.732;-121.358;2023-04-30T08:55:54;100707.94;;;17.29;54.89
64967;BME280;51710;38.732;-121.358;2023-04-30T08:58:20;100715.78;;;17.24;54.51
64967;BME280;51710;38.732;-121.358;2023-04-30T09:00:46;100701.25;;;17.19;54.89
64967;BME280;51710;38.732;-121.358;2023-04-30T09:03:13;100697.09;;;17.16;54.93
64967;BME280;51710;38.732;-121.358;2023-04-30T09:05:39;100700.84;;;17.15;55.19
64967;BME280;51710;38.732;-121.358;2023-04-30T09:08:07;100706.22;;;17.15;55.33
64967;BME280;51710;38.732;-121.358;2023-04-30T09:10:34;100703.91;;;17.12;55.07
64967;BME280;51710;38.732;-121.358;2023-04-30T09:13:07;100700.97;;;17.07;55.19
64967;BME280;51710;38.732;-121.358;2023-04-30T09:15:35;100706.13;;;17.02;55.31
64967;BME280;51710;38.732;-121.358;2023-04-30T09:18:13;100701.38;;;16.98;55.29
64967;BME280;51710;38.732;-121.358;2023-04-30T09:21:00;100699.66;;;16.90;55.41
64967;BME280;51710;38.732;-121.358;2023-04-30T09:23:28;100697.78;;;16.84;55.53
64967;BME280;51710;38.732;-121.358;2023-04-30T09:25:55;100695.03;;;16.77;55.43
64967;BME280;51710;38.732;-121.358;2023-04-30T09:28:24;100694.78;;;16.72;55.88
64967;BME280;51710;38.732;-121.358;2023-04-30T09:30:55;100691.44;;;16.64;55.82
64967;BME280;51710;38.732;-121.358;2023-04-30T09:33:22;100700.91;;;16.60;56.03
64967;BME280;51710;38.732;-121.358;2023-04-30T09:35:48;100710.41;;;16.56;56.37
64967;BME280;51710;38.732;-121.358;2023-04-30T09:38:31;100711.44;;;16.55;56.06
64967;BME280;51710;38.732;-121.358;2023-04-30T09:40:58;100702.13;;;16.51;55.95
64967;BME280;51710;38.732;-121.358;2023-04-30T09:43:28;100701.19;;;16.44;55.92
64967;BME280;51710;38.732;-121.358;2023-04-30T09:45:57;100698.25;;;16.39;56.43
64967;BME280;51710;38.732;-121.358;2023-04-30T09:48:24;100699.47;;;16.36;56.50
64967;BME280;51710;38.732;-121.358;2023-04-30T09:50:54;100693.66;;;16.33;56.46
64967;BME280;51710;38.732;-121.358;2023-04-30T09:53:20;100701.47;;;16.28;56.29
64967;BME280;51710;38.732;-121.358;2023-04-30T09:55:50;100699.00;;;16.26;56.75
64967;BME280;51710;38.732;-121.358;2023-04-30T09:58:17;100682.44;;;16.23;56.93
64967;BME280;51710;38.732;-121.358;2023-04-30T10:00:45;100691.50;;;16.22;56.68
64967;BME280;51710;38.732;-121.358;2023-04-30T10:03:14;100686.53;;;16.19;56.98
64967;BME280;51710;38.732;-121.358;2023-04-30T10:05:45;100683.19;;;16.17;56.99
64967;BME280;51710;38.732;-121.358;2023-04-30T10:08:35;100690.34;;;16.10;56.81
64967;BME280;51710;38.732;-121.358;2023-04-30T10:11:05;100684.75;;;16.05;57.34
64967;BME280;51710;38.732;-121.358;2023-04-30T10:13:44;100680.59;;;16.02;57.23
64967;BME280;51710;38.732;-121.358;2023-04-30T10:18:46;100674.38;;;16.02;57.08
64967;BME280;51710;38.732;-121.358;2023-04-30T10:21:17;100679.13;;;16.00;57.69
64967;BME280;51710;38.732;-121.358;2023-04-30T10:23:46;100682.19;;;15.97;57.58
64967;BME280;51710;38.732;-121.358;2023-04-30T10:26:13;100680.91;;;15.93;57.81
64967;BME280;51710;38.732;-121.358;2023-04-30T10:28:41;100680.66;;;15.88;58.14
64967;BME280;51710;38.732;-121.358;2023-04-30T10:31:08;100678.09;;;15.79;58.32
64967;BME280;51710;38.732;-121.358;2023-04-30T10:33:53;100683.22;;;15.74;58.24
64967;BME280;51710;38.732;-121.358;2023-04-30T10:36:45;100677.59;;;15.69;58.51
64967;BME280;51710;38.732;-121.358;2023-04-30T10:39:22;100668.28;;;15.65;58.62
64967;BME280;51710;38.732;-121.358;2023-04-30T10:42:05;100671.69;;;15.59;58.79
64967;BME280;51710;38.732;-121.358;2023-04-30T10:44:33;100668.19;;;15.59;59.13
64967;BME280;51710;38.732;-121.358;2023-04-30T10:47:00;100662.00;;;15.58;59.18
64967;BME280;51710;38.732;-121.358;2023-04-30T10:49:27;100650.63;;;15.56;58.95
64967;BME280;51710;38.732;-121.358;2023-04-30T10:51:54;100660.72;;;15.54;59.06
64967;BME280;51710;38.732;-121.358;2023-04-30T10:54:30;100654.06;;;15.50;59.19
64967;BME280;51710;38.732;-121.358;2023-04-30T10:57:13;100661.47;;;15.48;59.32
64967;BME280;51710;38.732;-121.358;2023-04-30T11:00:27;100655.84;;;15.43;59.21
64967;BME280;51710;38.732;-121.358;2023-04-30T11:02:41;100663.59;;;15.38;59.32
64967;BME280;51710;38.732;-121.358;2023-04-30T11:05:12;100657.59;;;15.36;59.23
64967;BME280;51710;38.732;-121.358;2023-04-30T11:07:55;100656.78;;;15.36;59.41
64967;BME280;51710;38.732;-121.358;2023-04-30T11:10:23;100660.91;;;15.38;59.12
64967;BME280;51710;38.732;-121.358;2023-04-30T11:12:52;100657.59;;;15.36;58.90
64967;BME280;51710;38.732;-121.358;2023-04-30T11:15:23;100652.41;;;15.35;59.13
64967;BME280;51710;38.732;-121.358;2023-04-30T11:17:50;100658.16;;;15.32;58.98
64967;BME280;51710;38.732;-121.358;2023-04-30T11:20:22;100663.72;;;15.30;59.33
64967;BME280;51710;38.732;-121.358;2023-04-30T11:23:13;100658.34;;;15.30;59.02
64967;BME280;51710;38.732;-121.358;2023-04-30T11:25:44;100656.03;;;15.27;59.07
64967;BME280;51710;38.732;-121.358;2023-04-30T11:28:24;100660.94;;;15.24;59.12
64967;BME280;51710;38.732;-121.358;2023-04-30T11:33:17;100660.69;;;15.19;59.34
64967;BME280;51710;38.732;-121.358;2023-04-30T11:35:44;100655.88;;;15.14;59.42
64967;BME280;51710;38.732;-121.358;2023-04-30T11:38:14;100651.09;;;15.10;59.34
64967;BME280;51710;38.732;-121.358;2023-04-30T11:40:42;100657.66;;;15.07;59.14
64967;BME280;51710;38.732;-121.358;2023-04-30T11:46:11;100652.22;;;15.01;59.38
64967;BME280;51710;38.732;-121.358;2023-04-30T11:48:39;100642.31;;;15.01;59.60
64967;BME280;51710;38.732;-121.358;2023-04-30T11:51:16;100642.31;;;15.01;59.37
64967;BME280;51710;38.732;-121.358;2023-04-30T11:53:48;100642.31;;;15.01;59.33
64967;BME280;51710;38.732;-121.358;2023-04-30T11:56:22;100649.28;;;14.96;59.56
64967;BME280;51710;38.732;-121.358;2023-04-30T11:58:51;100647.59;;;14.95;59.70
64967;BME280;51710;38.732;-121.358;2023-04-30T12:01:18;100644.44;;;14.91;59.72
64967;BME280;51710;38.732;-121.358;2023-04-30T12:03:47;100644.56;;;14.83;59.76
64967;BME280;51710;38.732;-121.358;2023-04-30T12:06:24;100643.25;;;14.79;59.54
64967;BME280;51710;38.732;-121.358;2023-04-30T12:08:59;100654.38;;;14.76;59.78
64967;BME280;51710;38.732;-121.358;2023-04-30T12:11:30;100644.03;;;14.73;59.92
64967;BME280;51710;38.732;-121.358;2023-04-30T12:14:01;100649.75;;;14.70;59.80
64967;BME280;51710;38.732;-121.358;2023-04-30T12:16:44;100643.56;;;14.70;60.14
64967;BME280;51710;38.732;-121.358;2023-04-30T12:19:12;100642.34;;;14.72;60.05
64967;BME280;51710;38.732;-121.358;2023-04-30T12:21:40;100644.66;;;14.75;59.96
64967;BME280;51710;38.732;-121.358;2023-04-30T12:24:13;100642.81;;;14.76;60.06
64967;BME280;51710;38.732;-121.358;2023-04-30T12:26:40;100637.44;;;14.76;60.20
64967;BME280;51710;38.732;-121.358;2023-04-30T12:29:16;100635.78;;;14.75;59.97
64967;BME280;51710;38.732;-121.358;2023-04-30T12:31:43;100631.63;;;14.72;60.17
64967;BME280;51710;38.732;-121.358;2023-04-30T12:34:12;100636.53;;;14.68;60.23
64967;BME280;51710;38.732;-121.358;2023-04-30T12:36:40;100643.09;;;14.66;60.34
64967;BME280;51710;38.732;-121.358;2023-04-30T12:39:11;100636.81;;;14.59;60.31
64967;BME280;51710;38.732;-121.358;2023-04-30T12:41:46;100637.16;;;14.56;60.53
64967;BME280;51710;38.732;-121.358;2023-04-30T12:46:41;100639.31;;;14.60;60.25
64967;BME280;51710;38.732;-121.358;2023-04-30T12:49:08;100638.84;;;14.57;60.36
64967;BME280;51710;38.732;-121.358;2023-04-30T12:51:36;100642.91;;;14.53;60.61
64967;BME280;51710;38.732;-121.358;2023-04-30T12:54:05;100634.41;;;14.49;60.69